Time;durP1;ratioP1;P1;durP2;ratioP2;P2;SDS_P1;SDS_P2;PMS_P1;PMS_P2;Temp;Humidity;BMP_temperature;BMP_pressure;BME280_temperature;BME280_humidity;BME280_pressure;Samples;Min_cycle;Max_cycle;Signal;HPM_P1;HPM_P2
2024/03/14 00:00:18;;;;;;;1.70;1.03;;;22.30;63.40;;;;;;5041082;28;20443;-82
2024/03/14 00:02:46;;;;;;;2.27;1.00;;;22.30;63.40;;;;;;5042568;28;20480;-84
2024/03/14 00:05:14;;;;;;;1.87;1.20;;;22.30;63.30;;;;;;5042103;28;20849;-83
2024/03/14 00:07:41;;;;;;;1.60;1.10;;;22.40;63.40;;;;;;5041433;28;20441;-82
2024/03/14 00:10:09;;;;;;;1.90;1.27;;;22.30;63.30;;;;;;5040666;28;20448;-85
2024/03/14 00:12:36;;;;;;;1.60;1.00;;;22.30;63.20;;;;;;5021642;28;20441;-82
2024/03/14 00:15:04;;;;;;;1.57;1.03;;;22.40;63.50;;;;;;5057013;28;20452;-82
2024/03/14 00:17:32;;;;;;;1.70;1.00;;;22.30;63.20;;;;;;5041258;28;20452;-83
2024/03/14 00:19:59;;;;;;;1.50;0.93;;;22.30;63.20;;;;;;5040714;28;21011;-82
2024/03/14 00:22:26;;;;;;;1.77;1.13;;;22.30;63.30;;;;;;5041018;28;20471;-82
2024/03/14 00:24:53;;;;;;;1.77;1.20;;;22.30;63.20;;;;;;5040117;28;20458;-82
2024/03/14 00:27:20;;;;;;;1.80;1.07;;;22.30;63.30;;;;;;5039366;28;20843;-83
2024/03/14 00:29:47;;;;;;;2.90;1.07;;;22.30;63.30;;;;;;5040201;28;20449;-83
2024/03/14 00:32:14;;;;;;;2.00;1.10;;;22.30;63.20;;;;;;5037592;28;20469;-82
2024/03/14 00:34:41;;;;;;;1.80;0.90;;;22.30;63.30;;;;;;5040012;28;20445;-82
2024/03/14 00:37:08;;;;;;;3.73;1.10;;;22.40;63.40;;;;;;5041257;28;20799;-85
2024/03/14 00:39:36;;;;;;;2.17;1.13;;;22.30;63.30;;;;;;5042256;28;20440;-85
2024/03/14 00:42:03;;;;;;;1.80;1.00;;;22.30;63.30;;;;;;5041602;28;20439;-84
2024/03/14 00:44:30;;;;;;;1.50;1.00;;;22.30;63.20;;;;;;5041334;28;20491;-89
2024/03/14 00:46:57;;;;;;;1.50;1.00;;;22.30;63.10;;;;;;5041063;28;20433;-83
2024/03/14 00:49:24;;;;;;;2.00;1.20;;;22.30;63.20;;;;;;5040489;28;20468;-89
2024/03/14 00:51:51;;;;;;;1.80;1.00;;;22.30;63.10;;;;;;5041066;28;20923;-89
2024/03/14 00:54:18;;;;;;;1.70;0.97;;;22.30;63.10;;;;;;5040480;28;20950;-83
2024/03/14 00:56:46;;;;;;;1.50;0.90;;;22.40;63.20;;;;;;5041751;28;20482;-83
2024/03/14 00:59:13;;;;;;;1.60;1.00;;;22.30;63.00;;;;;;5041220;28;20523;-89
2024/03/14 01:01:44;;;;;;;1.50;1.00;;;22.40;63.20;;;;;;5041690;28;20978;-89
2024/03/14 01:04:11;;;;;;;1.60;1.00;;;22.30;63.00;;;;;;5041288;28;20499;-85
2024/03/14 01:06:39;;;;;;;1.60;1.00;;;22.30;62.90;;;;;;5040789;28;20439;-83
2024/03/14 01:09:06;;;;;;;2.07;1.13;;;22.30;62.90;;;;;;5040936;28;20439;-88
2024/03/14 01:11:33;;;;;;;1.70;1.10;;;22.30;62.80;;;;;;5041159;28;20443;-88
2024/03/14 01:14:00;;;;;;;1.50;1.10;;;22.30;62.90;;;;;;5040499;28;20437;-89
2024/03/14 01:16:27;;;;;;;1.87;1.10;;;22.30;62.90;;;;;;5040706;28;20436;-83
2024/03/14 01:18:54;;;;;;;1.60;1.00;;;22.30;62.90;;;;;;5040522;28;20437;-84
2024/03/14 01:21:21;;;;;;;2.37;1.20;;;22.30;63.00;;;;;;5040273;28;20445;-82
2024/03/14 01:23:48;;;;;;;1.60;0.87;;;22.30;63.00;;;;;;5040375;28;20506;-83
2024/03/14 01:26:15;;;;;;;1.50;0.90;;;22.30;63.00;;;;;;5039929;28;20441;-90
2024/03/14 01:28:42;;;;;;;1.57;1.00;;;22.30;62.90;;;;;;5040437;28;20444;-83
2024/03/14 01:31:09;;;;;;;1.90;1.03;;;22.40;63.00;;;;;;5040596;28;20511;-89
2024/03/14 01:33:36;;;;;;;1.90;1.23;;;22.30;62.90;;;;;;5040872;28;20480;-89
2024/03/14 01:36:04;;;;;;;1.57;1.07;;;22.30;62.80;;;;;;5041092;28;20433;-83
2024/03/14 01:38:31;;;;;;;1.50;0.90;;;22.30;62.80;;;;;;5061966;28;20441;-83
2024/03/14 01:40:58;;;;;;;1.60;0.93;;;22.30;62.90;;;;;;5064572;28;20429;-84
2024/03/14 01:43:25;;;;;;;1.50;0.90;;;22.20;62.90;;;;;;5049404;28;20464;-84
2024/03/14 01:46:02;;;;;;;1.50;0.90;;;22.30;62.80;;;;;;5040568;28;20444;-89
2024/03/14 01:48:29;;;;;;;1.40;0.90;;;22.30;62.90;;;;;;5040239;28;20479;-89
2024/03/14 01:50:56;;;;;;;1.90;1.10;;;22.20;62.70;;;;;;5039147;28;20443;-83
2024/03/14 01:53:23;;;;;;;1.90;1.00;;;22.20;62.70;;;;;;5040148;28;20441;-83
2024/03/14 01:55:49;;;;;;;1.60;1.20;;;22.20;62.60;;;;;;5039961;28;20507;-83
2024/03/14 01:58:17;;;;;;;1.50;1.00;;;22.20;62.70;;;;;;5040491;28;20443;-84
2024/03/14 02:00:44;;;;;;;1.73;1.00;;;22.20;62.80;;;;;;5056930;28;20444;-89
2024/03/14 02:03:13;;;;;;;1.80;1.03;;;22.20;62.70;;;;;;5040521;28;20865;-89
2024/03/14 02:05:41;;;;;;;1.80;1.10;;;22.20;62.80;;;;;;5040397;28;20494;-83
2024/03/14 02:08:08;;;;;;;1.97;1.00;;;22.20;62.70;;;;;;5056364;28;20523;-83
2024/03/14 02:10:36;;;;;;;1.60;1.00;;;22.20;62.60;;;;;;5063203;28;20450;-84
2024/03/14 02:13:03;;;;;;;1.50;1.00;;;22.30;62.90;;;;;;5047603;28;20456;-83
2024/03/14 02:15:31;;;;;;;1.70;0.90;;;22.20;62.80;;;;;;5050029;28;20494;-80
2024/03/14 02:17:58;;;;;;;1.70;1.10;;;22.30;62.80;;;;;;5044794;28;20483;-83
2024/03/14 02:20:25;;;;;;;1.60;1.00;;;22.20;62.80;;;;;;5040541;28;20449;-90
2024/03/14 02:22:52;;;;;;;2.07;1.00;;;22.30;62.90;;;;;;5041164;28;20428;-90
2024/03/14 02:25:19;;;;;;;1.50;0.97;;;22.30;62.90;;;;;;5040431;28;20492;-84
2024/03/14 02:27:46;;;;;;;1.40;0.70;;;22.20;62.60;;;;;;5040452;28;20444;-88
2024/03/14 02:30:13;;;;;;;1.83;0.90;;;22.20;62.70;;;;;;5040206;28;20440;-89
2024/03/14 02:32:40;;;;;;;1.60;0.90;;;22.20;62.70;;;;;;5039926;28;20453;-84
2024/03/14 02:35:07;;;;;;;1.60;1.00;;;22.20;62.70;;;;;;5040048;28;20440;-83
2024/03/14 02:37:34;;;;;;;1.60;1.10;;;22.20;62.70;;;;;;5040304;28;20444;-89
2024/03/14 02:40:01;;;;;;;2.40;1.10;;;22.30;62.90;;;;;;5039309;28;20442;-83
2024/03/14 02:42:27;;;;;;;1.60;1.03;;;22.20;62.80;;;;;;5039666;28;20432;-88
2024/03/14 02:44:54;;;;;;;1.60;0.90;;;22.20;62.70;;;;;;5039766;28;20476;-84
2024/03/14 02:47:21;;;;;;;2.47;0.90;;;22.30;62.90;;;;;;5039751;28;20437;-86
2024/03/14 02:49:49;;;;;;;1.63;1.00;;;22.20;62.80;;;;;;5055662;28;20480;-83
2024/03/14 02:52:16;;;;;;;2.30;1.10;;;22.20;62.80;;;;;;5055973;28;20452;-84
2024/03/14 02:54:43;;;;;;;1.73;1.10;;;22.20;62.70;;;;;;5039463;28;20498;-89
2024/03/14 02:57:11;;;;;;;1.50;0.90;;;22.20;62.80;;;;;;5039544;28;20437;-84
2024/03/14 02:59:38;;;;;;;1.60;0.90;;;22.20;62.80;;;;;;5044878;28;20437;-83
2024/03/14 03:02:10;;;;;;;1.50;1.00;;;22.20;62.80;;;;;;5044442;28;20464;-89
2024/03/14 03:04:38;;;;;;;2.00;1.13;;;22.20;62.80;;;;;;5044460;28;20571;-89
2024/03/14 03:07:06;;;;;;;1.50;0.90;;;22.20;62.80;;;;;;5044076;28;20436;-84
2024/03/14 03:09:35;;;;;;;1.50;0.73;;;22.10;62.70;;;;;;5044735;28;20444;-88
2024/03/14 03:12:02;;;;;;;2.07;1.10;;;22.10;62.70;;;;;;5045284;28;20441;-83
2024/03/14 03:14:29;;;;;;;1.50;0.90;;;22.10;63.60;;;;;;5041627;28;20432;-90
2024/03/14 03:16:56;;;;;;;1.50;0.90;;;22.10;62.70;;;;;;5039935;28;20439;-88
2024/03/14 03:19:23;;;;;;;1.60;0.90;;;22.20;62.70;;;;;;5042902;28;20432;-88
2024/03/14 03:21:50;;;;;;;1.60;1.07;;;22.10;62.70;;;;;;5043759;28;20436;-89
2024/03/14 03:24:16;;;;;;;2.13;0.90;;;22.10;62.70;;;;;;5042416;28;20486;-82
2024/03/14 03:26:43;;;;;;;1.47;0.90;;;22.10;62.70;;;;;;5042260;28;20444;-83
2024/03/14 03:29:12;;;;;;;1.40;0.80;;;22.10;62.70;;;;;;5042600;28;20527;-83
2024/03/14 03:31:39;;;;;;;2.30;0.83;;;22.20;62.70;;;;;;5043469;28;20432;-84
2024/03/14 03:34:07;;;;;;;1.50;0.90;;;22.10;62.70;;;;;;5042523;28;20436;-83
2024/03/14 03:36:34;;;;;;;1.60;1.00;;;22.10;62.70;;;;;;5042958;28;20507;-89
2024/03/14 03:39:00;;;;;;;3.80;1.00;;;22.10;62.70;;;;;;5042451;28;20440;-83
2024/03/14 03:41:29;;;;;;;1.60;0.90;;;22.10;62.70;;;;;;5042173;28;20428;-83
2024/03/14 03:43:56;;;;;;;1.40;0.90;;;22.10;62.70;;;;;;5042756;28;20486;-84
2024/03/14 03:46:23;;;;;;;1.60;1.00;;;22.10;62.70;;;;;;5041532;28;20465;-87
2024/03/14 03:48:51;;;;;;;1.50;0.90;;;22.10;62.70;;;;;;5042240;28;20468;-91
2024/03/14 03:51:18;;;;;;;1.50;0.70;;;22.10;62.70;;;;;;5043480;28;20990;-89
2024/03/14 03:53:44;;;;;;;1.60;0.90;;;22.10;62.80;;;;;;5042589;28;20449;-84
2024/03/14 03:56:13;;;;;;;1.40;0.87;;;22.20;62.80;;;;;;5041712;28;20487;-83
2024/03/14 03:58:39;;;;;;;1.40;0.83;;;22.10;62.80;;;;;;5042501;28;20483;-84
2024/03/14 04:01:10;;;;;;;1.70;0.80;;;22.10;62.80;;;;;;5041886;28;20432;-84
2024/03/14 04:03:40;;;;;;;1.50;0.80;;;22.10;62.70;;;;;;5043206;28;20499;-83
2024/03/14 04:06:09;;;;;;;1.50;0.90;;;22.10;62.80;;;;;;5042782;28;20471;-84
2024/03/14 04:08:36;;;;;;;1.53;0.80;;;22.10;62.80;;;;;;5043456;28;20572;-83
2024/03/14 04:11:03;;;;;;;1.83;1.17;;;22.10;62.80;;;;;;5042414;28;20441;-89
2024/03/14 04:13:29;;;;;;;1.43;0.83;;;22.10;62.70;;;;;;5042675;28;20437;-90
2024/03/14 04:15:56;;;;;;;1.50;0.80;;;22.20;62.90;;;;;;5042769;28;20439;-88
2024/03/14 04:18:23;;;;;;;1.80;0.90;;;22.10;62.80;;;;;;5043019;28;20447;-90
2024/03/14 04:20:50;;;;;;;1.60;0.90;;;22.10;62.80;;;;;;5042232;28;20436;-90
2024/03/14 04:23:17;;;;;;;1.43;0.87;;;22.10;62.70;;;;;;5043497;28;20443;-90
2024/03/14 04:25:44;;;;;;;1.70;1.00;;;22.10;62.70;;;;;;5042172;28;20484;-91
2024/03/14 04:28:12;;;;;;;1.60;0.90;;;22.10;62.70;;;;;;5042617;28;20447;-90
2024/03/14 04:30:39;;;;;;;1.50;0.90;;;22.10;62.80;;;;;;5043016;28;20444;-89
2024/03/14 04:33:08;;;;;;;1.40;0.90;;;22.10;62.80;;;;;;5042932;28;20456;-89
2024/03/14 04:35:36;;;;;;;1.67;0.90;;;22.00;62.70;;;;;;5042794;28;20444;-85
2024/03/14 04:38:03;;;;;;;1.63;0.90;;;22.10;62.70;;;;;;5042418;28;20436;-90
2024/03/14 04:40:31;;;;;;;1.53;1.03;;;22.00;62.70;;;;;;5041844;28;20451;-89
2024/03/14 04:42:58;;;;;;;1.40;0.70;;;22.00;62.70;;;;;;5043046;28;20440;-85
2024/03/14 04:45:27;;;;;;;1.50;0.80;;;22.00;62.70;;;;;;5041614;28;20994;-90
2024/03/14 04:47:55;;;;;;;1.40;0.90;;;22.00;62.70;;;;;;5058746;28;20472;-90
2024/03/14 04:50:22;;;;;;;1.40;0.77;;;22.00;62.70;;;;;;5042920;28;20432;-89
2024/03/14 04:52:49;;;;;;;2.63;1.00;;;22.00;62.80;;;;;;5043911;28;20448;-91
2024/03/14 04:55:17;;;;;;;1.37;0.70;;;22.00;62.70;;;;;;5060989;28;20438;-88
2024/03/14 04:57:44;;;;;;;1.80;1.07;;;22.10;62.80;;;;;;5066700;28;20424;-87
2024/03/14 05:00:20;;;;;;;1.50;0.90;;;22.00;62.70;;;;;;5053495;28;20432;-84
2024/03/14 05:02:47;;;;;;;1.40;0.73;;;22.00;62.70;;;;;;5043231;28;20481;-83
2024/03/14 05:05:15;;;;;;;1.40;0.70;;;22.00;62.70;;;;;;5040948;28;20480;-88
2024/03/14 05:07:42;;;;;;;1.60;0.90;;;22.00;62.70;;;;;;5041538;28;20520;-83
2024/03/14 05:10:09;;;;;;;1.50;0.80;;;22.00;62.60;;;;;;5040936;28;20440;-84
2024/03/14 05:12:42;;;;;;;1.50;0.90;;;22.00;62.70;;;;;;5040914;28;20522;-83
2024/03/14 05:15:09;;;;;;;1.50;0.90;;;22.00;62.70;;;;;;5040492;28;20966;-85
2024/03/14 05:17:36;;;;;;;1.40;0.90;;;22.00;62.70;;;;;;5040281;28;20958;-84
2024/03/14 05:20:05;;;;;;;1.40;0.83;;;22.00;62.70;;;;;;5041217;28;20440;-89
2024/03/14 05:22:32;;;;;;;1.63;0.97;;;22.00;62.70;;;;;;5040874;28;20444;-83
2024/03/14 05:25:03;;;;;;;1.50;0.90;;;22.00;62.70;;;;;;5040458;28;21009;-90
2024/03/14 05:27:33;;;;;;;1.60;0.90;;;22.00;62.60;;;;;;5042094;28;20436;-90
2024/03/14 05:30:02;;;;;;;1.50;0.80;;;22.00;62.70;;;;;;5041222;28;20433;-90
2024/03/14 05:32:29;;;;;;;1.90;0.90;;;22.00;62.70;;;;;;5041694;28;20456;-83
2024/03/14 05:34:57;;;;;;;1.47;0.90;;;22.00;62.70;;;;;;5040734;28;20428;-84
2024/03/14 05:37:24;;;;;;;1.70;0.73;;;22.10;62.80;;;;;;5041301;28;20877;-90
2024/03/14 05:40:44;;;;;;;1.50;0.80;;;22.00;62.80;;;;;;5041206;28;20452;-91
2024/03/14 05:43:10;;;;;;;1.50;0.90;;;22.00;62.70;;;;;;5074432;28;20791;-84
2024/03/14 05:45:37;;;;;;;1.63;0.90;;;22.00;62.80;;;;;;5039921;28;20484;-83
2024/03/14 05:48:09;;;;;;;2.10;0.90;;;22.00;62.80;;;;;;5039994;28;20464;-86
2024/03/14 05:50:36;;;;;;;1.70;0.90;;;22.00;62.80;;;;;;5041719;28;20437;-89
2024/03/14 05:53:30;;;;;;;1.43;0.80;;;22.10;62.80;;;;;;5047205;28;20440;-84
2024/03/14 05:55:58;;;;;;;1.50;0.90;;;22.00;62.70;;;;;;5063675;28;20449;-84
2024/03/14 05:58:25;;;;;;;1.40;0.80;;;22.00;62.70;;;;;;5040261;28;20459;-90
2024/03/14 06:00:55;;;;;;;1.50;0.87;;;22.00;62.60;;;;;;5039669;28;20452;-83
2024/03/14 06:03:27;;;;;;;1.60;0.80;;;22.00;62.70;;;;;;5040580;28;20464;-90
2024/03/14 06:05:57;;;;;;;1.40;0.80;;;22.00;62.70;;;;;;5040263;28;20480;-89
2024/03/14 06:08:24;;;;;;;1.60;0.80;;;22.00;62.70;;;;;;5042984;28;20436;-90
2024/03/14 06:10:51;;;;;;;2.00;0.77;;;22.00;62.70;;;;;;5041071;28;20437;-83
2024/03/14 06:13:18;;;;;;;1.40;0.80;;;22.00;62.70;;;;;;5043846;28;20435;-82
2024/03/14 06:15:45;;;;;;;1.87;0.90;;;22.00;62.70;;;;;;5044347;28;20442;-89
2024/03/14 06:18:12;;;;;;;1.40;0.80;;;22.00;62.70;;;;;;5043795;28;20478;-83
2024/03/14 06:20:41;;;;;;;1.50;1.00;;;22.00;62.80;;;;;;5043594;28;20440;-89
2024/03/14 06:23:08;;;;;;;1.60;0.97;;;22.00;62.80;;;;;;5043805;28;20864;-85
2024/03/14 06:25:35;;;;;;;1.60;0.80;;;22.00;62.70;;;;;;5043853;28;20571;-91
2024/03/14 06:28:03;;;;;;;1.50;0.90;;;22.00;62.70;;;;;;5043895;28;20439;-90
2024/03/14 06:30:30;;;;;;;1.43;0.80;;;22.00;62.70;;;;;;5040573;28;20428;-83
2024/03/14 06:36:19;;;;;;;1.50;0.90;;;22.00;62.70;;;;;;5074086;28;20438;-83
2024/03/14 06:38:46;;;;;;;1.60;0.97;;;22.00;62.70;;;;;;5039045;28;20439;-90
2024/03/14 06:41:38;;;;;;;1.63;1.17;;;22.00;62.70;;;;;;5036073;28;20494;-85
2024/03/14 06:44:06;;;;;;;1.40;0.80;;;22.00;62.70;;;;;;5050197;28;20925;-86
2024/03/14 06:46:33;;;;;;;1.50;0.80;;;22.00;62.70;;;;;;5039901;28;20495;-84
2024/03/14 06:49:02;;;;;;;1.50;0.80;;;22.00;62.60;;;;;;5051623;28;20464;-83
2024/03/14 06:54:29;;;;;;;1.50;0.80;;;22.00;62.70;;;;;;5136733;23;20459;-83
2024/03/14 06:56:57;;;;;;;1.40;0.80;;;22.00;62.70;;;;;;5049787;28;20436;-89
2024/03/14 06:59:26;;;;;;;1.50;0.90;;;22.10;62.90;;;;;;5067248;28;20447;-89
2024/03/14 07:01:52;;;;;;;1.50;0.90;;;22.00;62.80;;;;;;5067079;28;20470;-85
2024/03/14 07:04:20;;;;;;;1.40;0.80;;;22.10;63.00;;;;;;5064124;28;20571;-91
2024/03/14 07:06:57;;;;;;;1.60;0.90;;;22.00;63.00;;;;;;5073524;28;20493;-90
2024/03/14 07:09:27;;;;;;;1.70;0.87;;;22.00;63.20;;;;;;5070020;28;20849;-90
2024/03/14 07:11:54;;;;;;;1.80;1.00;;;21.90;63.20;;;;;;5075189;28;20950;-86
2024/03/14 07:14:23;;;;;;;2.80;0.90;;;22.00;63.40;;;;;;5082528;28;20419;-82
2024/03/14 07:16:49;;;;;;;1.50;0.90;;;22.00;63.50;;;;;;5079940;28;20460;-82
2024/03/14 07:19:21;;;;;;;1.50;0.90;;;22.00;63.70;;;;;;5073431;28;20859;-90
2024/03/14 07:21:49;;;;;;;1.40;0.87;;;22.00;63.90;;;;;;5065267;28;20922;-89
2024/03/14 07:24:17;;;;;;;1.67;0.90;;;22.10;63.90;;;;;;5065966;28;20439;-90
2024/03/14 07:26:44;;;;;;;1.60;0.80;;;22.00;64.00;;;;;;5063527;28;20892;-84
2024/03/14 07:29:12;;;;;;;1.80;0.83;;;22.00;64.00;;;;;;5064664;28;20782;-90
2024/03/14 07:31:42;;;;;;;1.50;0.87;;;22.00;64.10;;;;;;5064878;28;20420;-90
2024/03/14 07:34:10;;;;;;;1.50;0.80;;;22.00;64.10;;;;;;5064445;28;20451;-90
2024/03/14 07:36:38;;;;;;;2.00;0.90;;;22.10;64.10;;;;;;5062722;28;21080;-90
2024/03/14 07:39:06;;;;;;;1.47;0.80;;;22.00;64.20;;;;;;5063111;28;20451;-84
2024/03/14 07:41:32;;;;;;;2.07;1.20;;;22.00;64.20;;;;;;5063346;28;20572;-81
2024/03/14 07:43:59;;;;;;;1.57;0.90;;;22.10;64.50;;;;;;5061636;28;20436;-81
2024/03/14 07:46:27;;;;;;;1.40;0.80;;;22.10;64.70;;;;;;5062152;28;21073;-90
2024/03/14 07:48:54;;;;;;;2.60;0.90;;;22.10;64.70;;;;;;5062326;28;20479;-89
2024/03/14 07:51:21;;;;;;;2.93;1.10;;;22.10;64.70;;;;;;5062512;28;20439;-90
2024/03/14 07:53:49;;;;;;;2.67;1.37;;;22.10;64.70;;;;;;5065539;28;20510;-89
2024/03/14 07:56:17;;;;;;;7.80;1.60;;;22.10;65.10;;;;;;5082248;28;20509;-87
2024/03/14 07:58:46;;;;;;;10.23;1.40;;;22.20;65.30;;;;;;5083856;28;20450;-85
2024/03/14 08:01:15;;;;;;;8.33;1.77;;;22.10;65.30;;;;;;5071974;28;20432;-83
2024/03/14 08:03:43;;;;;;;3.80;1.63;;;22.10;65.30;;;;;;5059967;28;20439;-83
2024/03/14 08:06:11;;;;;;;18.93;1.87;;;22.10;65.70;;;;;;5057882;28;20515;-90
2024/03/14 08:08:38;;;;;;;11.00;1.80;;;22.10;65.80;;;;;;5061173;28;20486;-90
2024/03/14 08:11:06;;;;;;;8.00;1.30;;;22.10;65.70;;;;;;5057823;28;20448;-83
2024/03/14 08:13:33;;;;;;;5.87;1.47;;;22.20;65.90;;;;;;5060887;28;20531;-82
2024/03/14 08:16:08;;;;;;;7.33;1.67;;;22.20;66.00;;;;;;5066212;28;20451;-82
2024/03/14 08:18:38;;;;;;;1.53;1.00;;;22.20;65.90;;;;;;5072547;28;20432;-83
2024/03/14 08:21:06;;;;;;;13.70;2.00;;;22.20;66.00;;;;;;5058619;28;20498;-83
2024/03/14 08:23:33;;;;;;;5.97;1.50;;;22.20;65.90;;;;;;5057500;28;20433;-83
2024/03/14 08:26:00;;;;;;;4.10;1.40;;;22.30;66.30;;;;;;5055374;28;20488;-83
2024/03/14 08:28:27;;;;;;;5.83;1.80;;;22.20;66.10;;;;;;5057813;28;20443;-91
2024/03/14 08:30:54;;;;;;;8.20;1.30;;;22.30;66.10;;;;;;5060447;28;20440;-90
2024/03/14 08:33:22;;;;;;;7.23;1.50;;;22.30;66.40;;;;;;5060408;28;20453;-91
2024/03/14 08:35:50;;;;;;;7.90;1.50;;;22.40;66.60;;;;;;5054054;28;20475;-90
2024/03/14 08:38:18;;;;;;;9.10;1.97;;;22.40;66.70;;;;;;5065203;28;20440;-90
2024/03/14 08:40:46;;;;;;;10.20;1.77;;;22.40;67.10;;;;;;5064739;28;20950;-91
2024/03/14 08:43:13;;;;;;;5.03;1.70;;;22.50;67.40;;;;;;5060220;28;20463;-85
2024/03/14 08:45:40;;;;;;;12.23;1.80;;;22.50;66.80;;;;;;5060206;28;20476;-85
2024/03/14 08:48:08;;;;;;;6.23;1.70;;;22.60;67.30;;;;;;5057764;28;20793;-90
2024/03/14 08:50:35;;;;;;;7.93;2.30;;;22.60;67.90;;;;;;5060110;28;20460;-91
2024/03/14 08:53:02;;;;;;;17.27;3.40;;;22.60;68.00;;;;;;5057330;28;20436;-85
2024/03/14 08:55:33;;;;;;;30.20;9.57;;;22.60;68.30;;;;;;5056734;28;20436;-84
2024/03/14 08:58:03;;;;;;;41.67;12.60;;;22.70;68.50;;;;;;5062354;28;20510;-85
2024/03/14 09:00:31;;;;;;;59.07;13.43;;;22.70;68.60;;;;;;5061784;28;20435;-88
2024/03/14 09:02:59;;;;;;;42.70;12.00;;;22.70;68.70;;;;;;5060439;28;20451;-82
2024/03/14 09:05:27;;;;;;;28.47;9.00;;;22.70;67.10;;;;;;5061093;28;20582;-84
2024/03/14 09:07:54;;;;;;;32.13;8.07;;;22.80;66.20;;;;;;5062234;28;20526;-84
2024/03/14 09:10:25;;;;;;;23.40;5.83;;;22.80;65.70;;;;;;5061103;28;20431;-91
2024/03/14 09:12:52;;;;;;;23.87;7.37;;;22.80;63.20;;;;;;5055162;28;20507;-91
2024/03/14 09:15:20;;;;;;;19.80;5.23;;;22.70;62.90;;;;;;5060475;28;20926;-91
2024/03/14 09:17:47;;;;;;;17.87;6.10;;;22.70;62.80;;;;;;5060912;28;20446;-91
2024/03/14 09:20:16;;;;;;;26.27;6.10;;;22.70;64.20;;;;;;5060594;28;20427;-87
2024/03/14 09:22:43;;;;;;;15.33;4.50;;;22.70;64.40;;;;;;5061212;28;20447;-85
2024/03/14 09:25:12;;;;;;;15.10;4.63;;;22.80;64.50;;;;;;5060562;28;20488;-84
2024/03/14 09:27:39;;;;;;;13.10;5.27;;;22.80;64.50;;;;;;5061023;28;20439;-83
2024/03/14 09:30:08;;;;;;;22.50;5.30;;;22.70;64.40;;;;;;5058270;28;20446;-83
2024/03/14 09:32:35;;;;;;;16.10;5.10;;;22.70;64.40;;;;;;5058585;28;20546;-84
2024/03/14 09:35:05;;;;;;;12.93;3.30;;;22.80;64.70;;;;;;5058447;28;20432;-85
2024/03/14 09:37:32;;;;;;;17.80;4.60;;;22.80;64.60;;;;;;5059877;28;20451;-92
2024/03/14 09:39:59;;;;;;;12.90;3.53;;;22.80;64.60;;;;;;5058894;28;20438;-92
2024/03/14 09:42:27;;;;;;;17.13;3.57;;;22.80;64.70;;;;;;5059033;28;20937;-90
2024/03/14 09:44:54;;;;;;;16.83;3.90;;;22.80;64.80;;;;;;5060019;28;20435;-84
2024/03/14 09:47:22;;;;;;;15.43;4.47;;;22.80;64.90;;;;;;5059826;28;20550;-84
2024/03/14 09:49:49;;;;;;;19.83;4.70;;;22.90;65.10;;;;;;5060116;28;20438;-84
2024/03/14 09:52:16;;;;;;;14.43;3.77;;;22.90;65.20;;;;;;5059857;28;20435;-89
2024/03/14 09:54:43;;;;;;;11.93;4.87;;;22.90;65.20;;;;;;5059576;28;20483;-84
2024/03/14 09:57:11;;;;;;;8.80;3.57;;;23.00;65.40;;;;;;5056233;28;20433;-90
2024/03/14 09:59:38;;;;;;;11.10;3.83;;;23.00;65.50;;;;;;5059104;28;20765;-83
2024/03/14 10:02:06;;;;;;;8.60;3.87;;;23.00;65.60;;;;;;5055875;28;20449;-84
2024/03/14 10:04:33;;;;;;;12.50;3.50;;;23.00;65.50;;;;;;5057842;28;20472;-84
2024/03/14 10:07:00;;;;;;;11.13;3.80;;;23.00;65.50;;;;;;5055902;28;21002;-84
2024/03/14 10:09:29;;;;;;;9.93;3.57;;;23.10;65.70;;;;;;5057461;28;20432;-89
2024/03/14 10:12:01;;;;;;;10.13;3.83;;;23.20;65.90;;;;;;5056976;28;20443;-91
2024/03/14 10:14:28;;;;;;;10.87;3.80;;;23.10;65.90;;;;;;5057753;28;20437;-91
2024/03/14 10:16:56;;;;;;;9.10;3.50;;;23.10;65.70;;;;;;5056547;28;20810;-83
2024/03/14 10:19:25;;;;;;;11.13;3.37;;;23.10;65.90;;;;;;5056488;28;20436;-82
2024/03/14 10:21:54;;;;;;;7.20;3.47;;;23.10;65.80;;;;;;5055663;28;20493;-83
2024/03/14 10:24:22;;;;;;;6.73;3.07;;;23.10;65.30;;;;;;5055795;28;20445;-86
2024/03/14 10:26:49;;;;;;;8.23;3.00;;;23.20;64.70;;;;;;5056591;28;20484;-84
2024/03/14 10:29:17;;;;;;;11.80;2.60;;;23.20;64.50;;;;;;5059712;28;20425;-85
2024/03/14 10:31:44;;;;;;;6.00;2.83;;;23.20;64.40;;;;;;5063057;28;20546;-85
2024/03/14 10:34:11;;;;;;;7.83;3.20;;;23.20;64.20;;;;;;5059651;28;20440;-85
2024/03/14 10:36:39;;;;;;;6.07;2.20;;;23.20;64.00;;;;;;5062203;28;20439;-85
2024/03/14 10:39:08;;;;;;;4.63;1.77;;;23.30;64.00;;;;;;5059909;28;20835;-86
2024/03/14 10:41:35;;;;;;;5.40;2.17;;;23.30;63.90;;;;;;5061663;28;20512;-86
2024/03/14 10:44:01;;;;;;;5.30;2.40;;;23.30;63.80;;;;;;5059555;28;20436;-86
2024/03/14 10:46:30;;;;;;;5.57;2.30;;;23.40;63.80;;;;;;5060393;28;20499;-86
2024/03/14 10:48:57;;;;;;;6.73;2.57;;;23.40;63.70;;;;;;5059701;28;20440;-84
2024/03/14 10:51:27;;;;;;;12.53;2.60;;;23.40;63.80;;;;;;5059653;28;20442;-86
2024/03/14 10:53:55;;;;;;;6.30;1.70;;;23.40;63.70;;;;;;5059707;28;20503;-83
2024/03/14 10:56:24;;;;;;;5.27;2.20;;;23.40;63.70;;;;;;5059731;28;20497;-86
2024/03/14 10:58:53;;;;;;;5.87;2.00;;;23.40;63.70;;;;;;5051818;28;20440;-86
2024/03/14 11:01:19;;;;;;;3.67;1.80;;;23.50;63.90;;;;;;5059462;28;20498;-84
2024/03/14 11:03:47;;;;;;;7.67;1.87;;;23.40;63.70;;;;;;5059088;28;20436;-87
2024/03/14 11:06:14;;;;;;;5.83;2.50;;;23.50;63.80;;;;;;5059189;28;20995;-84
2024/03/14 11:08:43;;;;;;;4.90;1.83;;;23.50;63.80;;;;;;5059017;28;20923;-83
2024/03/14 11:11:12;;;;;;;4.73;2.13;;;23.50;63.70;;;;;;5054389;28;20444;-87
2024/03/14 11:13:38;;;;;;;4.50;2.00;;;23.50;63.70;;;;;;5059470;28;20946;-84
2024/03/14 11:16:06;;;;;;;3.70;2.40;;;23.50;63.70;;;;;;5053488;28;20432;-84
2024/03/14 11:18:33;;;;;;;3.60;1.97;;;23.50;63.60;;;;;;5058995;28;20513;-84
2024/03/14 11:21:03;;;;;;;8.30;2.00;;;23.60;63.80;;;;;;5052644;28;20790;-86
2024/03/14 11:23:30;;;;;;;2.73;1.77;;;23.50;63.80;;;;;;5059261;28;20440;-87
2024/03/14 11:25:58;;;;;;;3.50;1.73;;;23.50;63.80;;;;;;5052067;28;20447;-85
2024/03/14 11:28:26;;;;;;;2.90;1.73;;;23.60;63.80;;;;;;5061870;28;20534;-84
2024/03/14 11:30:52;;;;;;;4.70;2.47;;;23.60;63.80;;;;;;5076971;28;20421;-83
2024/03/14 11:33:19;;;;;;;4.83;1.80;;;23.50;63.70;;;;;;5084401;28;20433;-85
2024/03/14 11:35:47;;;;;;;4.63;1.60;;;23.60;63.80;;;;;;5061316;28;20433;-86
2024/03/14 11:38:30;;;;;;;5.67;2.03;;;23.50;63.70;;;;;;5063259;28;20540;-84
2024/03/14 11:41:01;;;;;;;3.20;1.27;;;23.60;63.60;;;;;;5072222;28;20427;-85
2024/03/14 11:43:28;;;;;;;4.30;2.00;;;23.60;63.90;;;;;;5073014;28;20440;-85
2024/03/14 11:45:54;;;;;;;10.80;2.00;;;23.60;64.00;;;;;;5055625;28;20433;-87
2024/03/14 11:48:21;;;;;;;2.77;1.40;;;23.60;63.90;;;;;;5058253;28;20440;-84
2024/03/14 11:50:48;;;;;;;4.80;1.60;;;23.60;64.00;;;;;;5050203;28;20440;-86
2024/03/14 11:53:16;;;;;;;2.90;1.50;;;23.70;64.10;;;;;;5058067;28;20474;-84
2024/03/14 11:55:44;;;;;;;2.73;1.50;;;23.70;64.00;;;;;;5058151;28;20448;-86
2024/03/14 11:58:16;;;;;;;3.80;1.37;;;23.70;64.20;;;;;;5053593;28;20433;-87
2024/03/14 12:00:47;;;;;;;3.70;1.63;;;23.70;64.00;;;;;;5058938;28;20433;-87
2024/03/14 12:03:14;;;;;;;5.90;1.50;;;23.70;63.80;;;;;;5054579;28;20975;-86
2024/03/14 12:05:44;;;;;;;4.13;1.67;;;23.70;64.00;;;;;;5059034;28;20471;-91
2024/03/14 12:08:12;;;;;;;2.27;1.40;;;23.70;64.20;;;;;;5055228;28;20867;-85
2024/03/14 12:10:39;;;;;;;3.30;1.30;;;23.70;64.50;;;;;;5059284;28;20927;-91
2024/03/14 12:13:13;;;;;;;4.83;2.20;;;23.70;64.70;;;;;;5052976;28;20440;-91
2024/03/14 12:15:41;;;;;;;2.53;1.30;;;23.80;64.90;;;;;;5059623;28;20428;-89
2024/03/14 12:18:10;;;;;;;4.63;1.50;;;23.80;65.00;;;;;;5053426;28;20468;-91
2024/03/14 12:20:37;;;;;;;3.00;1.37;;;23.80;65.20;;;;;;5059072;28;20432;-85
2024/03/14 12:23:07;;;;;;;3.57;1.53;;;24.00;65.50;;;;;;5053368;28;20910;-91
2024/03/14 12:25:37;;;;;;;3.30;1.30;;;23.90;65.50;;;;;;5060532;28;20444;-91
2024/03/14 12:28:04;;;;;;;2.40;1.23;;;24.10;65.60;;;;;;5053198;28;20483;-85
2024/03/14 12:30:33;;;;;;;2.00;1.20;;;24.10;65.70;;;;;;5058157;28;20447;-91
2024/03/14 12:33:01;;;;;;;1.73;1.20;;;24.10;65.80;;;;;;5051709;28;20540;-86
2024/03/14 12:35:28;;;;;;;3.83;1.60;;;24.20;66.00;;;;;;5058046;28;20473;-90
2024/03/14 12:37:55;;;;;;;3.07;1.50;;;24.20;66.10;;;;;;5051060;28;20508;-86
2024/03/14 12:40:22;;;;;;;5.33;1.80;;;24.20;66.20;;;;;;5057976;28;20437;-91
2024/03/14 12:42:50;;;;;;;2.83;1.30;;;24.30;66.20;;;;;;5050427;28;20535;-91
2024/03/14 12:45:17;;;;;;;2.37;1.20;;;24.30;67.10;;;;;;5058357;28;20444;-89
2024/03/14 12:47:45;;;;;;;2.03;1.00;;;24.40;67.20;;;;;;5060202;28;20506;-86
2024/03/14 12:50:21;;;;;;;2.30;1.20;;;24.40;66.30;;;;;;5052663;28;20472;-87
2024/03/14 12:53:01;;;;;;;2.10;1.00;;;24.50;66.20;;;;;;5061564;28;20428;-86
2024/03/14 12:55:28;;;;;;;2.13;1.20;;;24.50;66.30;;;;;;5064724;28;20440;-86